sensor_id;sensor_type;location;lat;lon;timestamp;P1;durP1;ratioP1;P2;durP2;ratioP2
70997;SDS011;58663;52.040;4.634;2023-05-10T00:01:45;119.68;;;30.33;;
70997;SDS011;58663;52.040;4.634;2023-05-10T00:04:11;118.95;;;30.38;;
70997;SDS011;58663;52.040;4.634;2023-05-10T00:06:36;130.98;;;31.42;;
70997;SDS011;58663;52.040;4.634;2023-05-10T00:09:01;121.78;;;32.08;;
70997;SDS011;58663;52.040;4.634;2023-05-10T00:11:27;137.25;;;34.40;;
70997;SDS011;58663;52.040;4.634;2023-05-10T00:13:53;132.45;;;33.50;;
70997;SDS011;58663;52.040;4.634;2023-05-10T00:16:19;148.23;;;36.20;;
70997;SDS011;58663;52.040;4.634;2023-05-10T00:18:44;164.13;;;38.00;;
70997;SDS011;58663;52.040;4.634;2023-05-10T00:21:09;140.75;;;37.47;;
70997;SDS011;58663;52.040;4.634;2023-05-10T00:23:35;139.60;;;36.20;;
70997;SDS011;58663;52.040;4.634;2023-05-10T00:26:00;139.93;;;36.08;;
70997;SDS011;58663;52.040;4.634;2023-05-10T00:28:27;149.27;;;35.88;;
70997;SDS011;58663;52.040;4.634;2023-05-10T00:30:53;151.43;;;38.38;;
70997;SDS011;58663;52.040;4.634;2023-05-10T00:33:18;154.18;;;39.13;;
70997;SDS011;58663;52.040;4.634;2023-05-10T00:35:43;159.52;;;40.97;;
70997;SDS011;58663;52.040;4.634;2023-05-10T00:38:09;157.80;;;38.47;;
70997;SDS011;58663;52.040;4.634;2023-05-10T00:40:35;164.98;;;39.38;;
70997;SDS011;58663;52.040;4.634;2023-05-10T00:43:01;176.90;;;41.92;;
70997;SDS011;58663;52.040;4.634;2023-05-10T00:45:26;213.30;;;47.08;;
70997;SDS011;58663;52.040;4.634;2023-05-10T00:47:52;234.43;;;50.15;;
70997;SDS011;58663;52.040;4.634;2023-05-10T00:50:20;227.73;;;51.00;;
70997;SDS011;58663;52.040;4.634;2023-05-10T00:52:46;225.30;;;50.92;;
70997;SDS011;58663;52.040;4.634;2023-05-10T00:55:12;227.27;;;48.80;;
70997;SDS011;58663;52.040;4.634;2023-05-10T00:57:37;252.90;;;53.15;;
70997;SDS011;58663;52.040;4.634;2023-05-10T01:00:03;226.20;;;49.10;;
70997;SDS011;58663;52.040;4.634;2023-05-10T01:02:29;227.65;;;47.47;;
70997;SDS011;58663;52.040;4.634;2023-05-10T01:04:54;221.55;;;48.85;;
70997;SDS011;58663;52.040;4.634;2023-05-10T01:07:20;209.93;;;46.63;;
70997;SDS011;58663;52.040;4.634;2023-05-10T01:09:45;243.38;;;49.88;;
70997;SDS011;58663;52.040;4.634;2023-05-10T01:12:11;253.18;;;60.35;;
70997;SDS011;58663;52.040;4.634;2023-05-10T01:14:36;260.63;;;64.13;;
70997;SDS011;58663;52.040;4.634;2023-05-10T01:17:02;263.15;;;62.58;;
70997;SDS011;58663;52.040;4.634;2023-05-10T01:19:29;286.33;;;65.05;;
70997;SDS011;58663;52.040;4.634;2023-05-10T01:27:25;266.85;;;58.83;;
70997;SDS011;58663;52.040;4.634;2023-05-10T01:30:04;253.55;;;55.42;;
70997;SDS011;58663;52.040;4.634;2023-05-10T01:35:10;246.75;;;56.40;;
70997;SDS011;58663;52.040;4.634;2023-05-10T01:37:52;243.65;;;51.63;;
70997;SDS011;58663;52.040;4.634;2023-05-10T01:43:23;244.65;;;47.63;;
70997;SDS011;58663;52.040;4.634;2023-05-10T01:45:59;273.67;;;46.85;;
70997;SDS011;58663;52.040;4.634;2023-05-10T01:48:29;287.02;;;47.90;;
70997;SDS011;58663;52.040;4.634;2023-05-10T01:50:55;252.50;;;44.72;;
70997;SDS011;58663;52.040;4.634;2023-05-10T01:53:21;269.65;;;49.08;;
70997;SDS011;58663;52.040;4.634;2023-05-10T01:55:48;269.98;;;50.40;;
70997;SDS011;58663;52.040;4.634;2023-05-10T01:58:27;296.00;;;49.70;;
70997;SDS011;58663;52.040;4.634;2023-05-10T02:00:54;283.52;;;51.53;;
70997;SDS011;58663;52.040;4.634;2023-05-10T02:03:22;273.52;;;49.67;;
70997;SDS011;58663;52.040;4.634;2023-05-10T02:05:48;254.75;;;51.65;;
70997;SDS011;58663;52.040;4.634;2023-05-10T02:08:15;262.85;;;51.22;;
70997;SDS011;58663;52.040;4.634;2023-05-10T02:10:42;259.85;;;52.00;;
70997;SDS011;58663;52.040;4.634;2023-05-10T02:13:08;278.27;;;53.97;;
70997;SDS011;58663;52.040;4.634;2023-05-10T02:15:35;266.92;;;51.53;;
70997;SDS011;58663;52.040;4.634;2023-05-10T02:18:02;291.02;;;50.60;;
70997;SDS011;58663;52.040;4.634;2023-05-10T02:20:27;295.30;;;52.80;;
70997;SDS011;58663;52.040;4.634;2023-05-10T02:22:54;279.60;;;51.60;;
70997;SDS011;58663;52.040;4.634;2023-05-10T02:25:21;264.63;;;55.45;;
70997;SDS011;58663;52.040;4.634;2023-05-10T02:27:47;251.88;;;54.42;;
70997;SDS011;58663;52.040;4.634;2023-05-10T02:30:13;266.67;;;56.40;;
70997;SDS011;58663;52.040;4.634;2023-05-10T02:32:39;243.02;;;53.65;;
70997;SDS011;58663;52.040;4.634;2023-05-10T02:35:06;245.82;;;59.35;;
70997;SDS011;58663;52.040;4.634;2023-05-10T02:37:32;245.73;;;57.30;;
70997;SDS011;58663;52.040;4.634;2023-05-10T02:39:58;227.15;;;55.35;;
70997;SDS011;58663;52.040;4.634;2023-05-10T02:42:27;212.85;;;51.63;;
70997;SDS011;58663;52.040;4.634;2023-05-10T02:44:56;229.38;;;54.30;;
70997;SDS011;58663;52.040;4.634;2023-05-10T02:47:28;247.20;;;56.67;;
70997;SDS011;58663;52.040;4.634;2023-05-10T02:49:54;239.75;;;57.13;;
70997;SDS011;58663;52.040;4.634;2023-05-10T02:52:21;238.77;;;58.88;;
70997;SDS011;58663;52.040;4.634;2023-05-10T02:54:49;241.90;;;58.30;;
70997;SDS011;58663;52.040;4.634;2023-05-10T02:57:16;254.93;;;59.55;;
70997;SDS011;58663;52.040;4.634;2023-05-10T02:59:43;267.98;;;59.97;;
70997;SDS011;58663;52.040;4.634;2023-05-10T03:02:10;271.73;;;61.95;;
70997;SDS011;58663;52.040;4.634;2023-05-10T03:04:37;271.75;;;62.55;;
70997;SDS011;58663;52.040;4.634;2023-05-10T03:07:02;275.40;;;66.45;;
70997;SDS011;58663;52.040;4.634;2023-05-10T03:09:28;255.10;;;67.22;;
70997;SDS011;58663;52.040;4.634;2023-05-10T03:14:59;255.50;;;67.50;;
70997;SDS011;58663;52.040;4.634;2023-05-10T03:17:41;229.02;;;61.15;;
70997;SDS011;58663;52.040;4.634;2023-05-10T03:20:21;245.68;;;65.22;;
70997;SDS011;58663;52.040;4.634;2023-05-10T03:22:51;248.85;;;73.32;;
70997;SDS011;58663;52.040;4.634;2023-05-10T03:25:21;268.17;;;75.82;;
70997;SDS011;58663;52.040;4.634;2023-05-10T03:27:47;243.52;;;70.78;;
70997;SDS011;58663;52.040;4.634;2023-05-10T03:30:13;255.63;;;70.85;;
70997;SDS011;58663;52.040;4.634;2023-05-10T03:32:38;260.25;;;73.55;;
70997;SDS011;58663;52.040;4.634;2023-05-10T03:35:07;250.10;;;70.72;;
70997;SDS011;58663;52.040;4.634;2023-05-10T03:37:33;264.80;;;72.53;;
70997;SDS011;58663;52.040;4.634;2023-05-10T03:39:59;264.17;;;74.65;;
70997;SDS011;58663;52.040;4.634;2023-05-10T03:42:24;259.90;;;72.72;;
70997;SDS011;58663;52.040;4.634;2023-05-10T03:44:50;266.80;;;73.63;;
70997;SDS011;58663;52.040;4.634;2023-05-10T03:47:15;283.85;;;75.32;;
70997;SDS011;58663;52.040;4.634;2023-05-10T03:49:40;284.52;;;79.10;;
70997;SDS011;58663;52.040;4.634;2023-05-10T03:52:06;283.30;;;76.40;;
70997;SDS011;58663;52.040;4.634;2023-05-10T03:54:31;237.63;;;65.05;;
70997;SDS011;58663;52.040;4.634;2023-05-10T03:56:57;242.00;;;76.43;;
70997;SDS011;58663;52.040;4.634;2023-05-10T03:59:22;264.30;;;83.82;;
70997;SDS011;58663;52.040;4.634;2023-05-10T04:01:47;254.90;;;79.00;;
70997;SDS011;58663;52.040;4.634;2023-05-10T04:04:13;244.05;;;68.40;;
70997;SDS011;58663;52.040;4.634;2023-05-10T04:06:38;252.10;;;69.07;;
70997;SDS011;58663;52.040;4.634;2023-05-10T04:09:03;257.10;;;83.22;;
70997;SDS011;58663;52.040;4.634;2023-05-10T04:11:29;274.20;;;82.82;;
70997;SDS011;58663;52.040;4.634;2023-05-10T04:13:55;274.40;;;83.00;;
70997;SDS011;58663;52.040;4.634;2023-05-10T04:16:20;284.25;;;87.03;;
70997;SDS011;58663;52.040;4.634;2023-05-10T04:18:45;305.33;;;87.35;;
70997;SDS011;58663;52.040;4.634;2023-05-10T04:21:13;310.23;;;87.10;;
70997;SDS011;58663;52.040;4.634;2023-05-10T04:23:39;282.20;;;76.90;;
70997;SDS011;58663;52.040;4.634;2023-05-10T04:26:05;267.50;;;79.78;;
70997;SDS011;58663;52.040;4.634;2023-05-10T04:28:30;279.67;;;79.88;;
70997;SDS011;58663;52.040;4.634;2023-05-10T04:33:28;262.95;;;77.78;;
70997;SDS011;58663;52.040;4.634;2023-05-10T04:35:53;258.42;;;76.05;;
70997;SDS011;58663;52.040;4.634;2023-05-10T04:38:18;256.02;;;73.30;;
70997;SDS011;58663;52.040;4.634;2023-05-10T04:40:44;240.02;;;69.30;;
70997;SDS011;58663;52.040;4.634;2023-05-10T04:43:09;235.30;;;67.15;;
70997;SDS011;58663;52.040;4.634;2023-05-10T04:45:34;215.32;;;64.70;;
70997;SDS011;58663;52.040;4.634;2023-05-10T04:48:00;207.85;;;61.42;;
70997;SDS011;58663;52.040;4.634;2023-05-10T04:50:25;211.15;;;61.67;;
70997;SDS011;58663;52.040;4.634;2023-05-10T04:52:50;218.07;;;63.95;;
70997;SDS011;58663;52.040;4.634;2023-05-10T04:55:16;187.20;;;59.10;;
70997;SDS011;58663;52.040;4.634;2023-05-10T04:57:41;196.02;;;56.88;;
70997;SDS011;58663;52.040;4.634;2023-05-10T05:00:07;214.63;;;60.45;;
70997;SDS011;58663;52.040;4.634;2023-05-10T05:02:33;197.43;;;60.05;;
70997;SDS011;58663;52.040;4.634;2023-05-10T05:04:58;216.82;;;61.22;;
70997;SDS011;58663;52.040;4.634;2023-05-10T05:07:23;197.63;;;56.58;;
70997;SDS011;58663;52.040;4.634;2023-05-10T05:09:49;190.48;;;55.22;;
70997;SDS011;58663;52.040;4.634;2023-05-10T05:12:14;179.35;;;52.70;;
70997;SDS011;58663;52.040;4.634;2023-05-10T05:14:40;195.70;;;58.78;;
70997;SDS011;58663;52.040;4.634;2023-05-10T05:17:06;191.55;;;56.55;;
70997;SDS011;58663;52.040;4.634;2023-05-10T05:19:31;187.05;;;55.83;;
70997;SDS011;58663;52.040;4.634;2023-05-10T05:21:57;165.70;;;52.67;;
70997;SDS011;58663;52.040;4.634;2023-05-10T05:24:22;174.77;;;50.72;;
70997;SDS011;58663;52.040;4.634;2023-05-10T05:26:48;148.88;;;47.28;;
70997;SDS011;58663;52.040;4.634;2023-05-10T05:29:13;147.82;;;46.17;;
70997;SDS011;58663;52.040;4.634;2023-05-10T05:31:39;130.35;;;41.65;;
70997;SDS011;58663;52.040;4.634;2023-05-10T05:34:04;120.07;;;36.47;;
70997;SDS011;58663;52.040;4.634;2023-05-10T05:36:29;126.43;;;37.03;;
70997;SDS011;58663;52.040;4.634;2023-05-10T05:38:56;124.65;;;36.30;;
70997;SDS011;58663;52.040;4.634;2023-05-10T05:41:22;111.90;;;33.83;;
70997;SDS011;58663;52.040;4.634;2023-05-10T05:43:48;125.30;;;36.08;;
70997;SDS011;58663;52.040;4.634;2023-05-10T05:46:14;111.55;;;33.78;;
70997;SDS011;58663;52.040;4.634;2023-05-10T05:48:39;117.90;;;34.75;;
70997;SDS011;58663;52.040;4.634;2023-05-10T05:51:05;103.43;;;33.75;;
70997;SDS011;58663;52.040;4.634;2023-05-10T05:53:30;105.70;;;32.28;;
70997;SDS011;58663;52.040;4.634;2023-05-10T05:55:57;80.78;;;24.77;;
70997;SDS011;58663;52.040;4.634;2023-05-10T05:58:23;86.40;;;26.00;;
70997;SDS011;58663;52.040;4.634;2023-05-10T06:00:49;75.35;;;21.98;;
70997;SDS011;58663;52.040;4.634;2023-05-10T06:03:15;74.18;;;21.27;;
70997;SDS011;58663;52.040;4.634;2023-05-10T06:05:40;68.22;;;22.00;;
70997;SDS011;58663;52.040;4.634;2023-05-10T06:08:06;61.72;;;19.27;;
70997;SDS011;58663;52.040;4.634;2023-05-10T06:10:31;50.72;;;16.73;;
70997;SDS011;58663;52.040;4.634;2023-05-10T06:12:56;38.83;;;14.57;;
70997;SDS011;58663;52.040;4.634;2023-05-10T06:15:22;32.97;;;13.05;;
70997;SDS011;58663;52.040;4.634;2023-05-10T06:17:47;39.75;;;14.27;;
70997;SDS011;58663;52.040;4.634;2023-05-10T06:20:14;29.35;;;12.90;;
70997;SDS011;58663;52.040;4.634;2023-05-10T06:22:40;26.65;;;11.73;;
70997;SDS011;58663;52.040;4.634;2023-05-10T06:25:05;23.63;;;11.43;;
70997;SDS011;58663;52.040;4.634;2023-05-10T06:27:31;22.25;;;11.05;;
70997;SDS011;58663;52.040;4.634;2023-05-10T06:29:56;19.05;;;10.57;;
70997;SDS011;58663;52.040;4.634;2023-05-10T06:32:22;19.15;;;10.20;;
70997;SDS011;58663;52.040;4.634;2023-05-10T06:34:47;19.98;;;10.15;;
70997;SDS011;58663;52.040;4.634;2023-05-10T06:37:13;16.67;;;10.05;;
70997;SDS011;58663;52.040;4.634;2023-05-10T06:39:38;16.77;;;9.40;;
70997;SDS011;58663;52.040;4.634;2023-05-10T06:42:03;18.98;;;10.20;;
70997;SDS011;58663;52.040;4.634;2023-05-10T06:44:29;15.95;;;9.65;;
70997;SDS011;58663;52.040;4.634;2023-05-10T06:46:55;16.10;;;8.32;;
70997;SDS011;58663;52.040;4.634;2023-05-10T06:49:20;16.15;;;8.63;;
70997;SDS011;58663;52.040;4.634;2023-05-10T06:51:46;11.50;;;7.35;;
70997;SDS011;58663;52.040;4.634;2023-05-10T06:54:11;9.80;;;6.63;;
70997;SDS011;58663;52.040;4.634;2023-05-10T06:56:36;7.32;;;5.10;;
70997;SDS011;58663;52.040;4.634;2023-05-10T06:59:02;7.68;;;5.50;;
70997;SDS011;58663;52.040;4.634;2023-05-10T07:01:27;10.05;;;6.28;;
70997;SDS011;58663;52.040;4.634;2023-05-10T07:03:53;24.80;;;6.40;;
70997;SDS011;58663;52.040;4.634;2023-05-10T07:06:18;7.80;;;4.78;;
70997;SDS011;58663;52.040;4.634;2023-05-10T07:08:44;7.50;;;4.78;;
70997;SDS011;58663;52.040;4.634;2023-05-10T07:11:09;5.13;;;4.05;;
70997;SDS011;58663;52.040;4.634;2023-05-10T07:13:37;5.80;;;4.20;;
70997;SDS011;58663;52.040;4.634;2023-05-10T07:16:06;6.57;;;4.40;;
70997;SDS011;58663;52.040;4.634;2023-05-10T07:18:32;7.93;;;5.10;;
70997;SDS011;58663;52.040;4.634;2023-05-10T07:20:58;8.23;;;5.05;;
70997;SDS011;58663;52.040;4.634;2023-05-10T07:23:24;9.90;;;5.50;;
70997;SDS011;58663;52.040;4.634;2023-05-10T07:25:50;10.93;;;5.75;;
70997;SDS011;58663;52.040;4.634;2023-05-10T07:28:18;7.90;;;5.25;;
70997;SDS011;58663;52.040;4.634;2023-05-10T07:30:44;10.35;;;5.45;;
70997;SDS011;58663;52.040;4.634;2023-05-10T07:33:10;8.05;;;5.00;;
70997;SDS011;58663;52.040;4.634;2023-05-10T07:35:37;13.80;;;6.10;;
70997;SDS011;58663;52.040;4.634;2023-05-10T07:38:02;8.98;;;5.60;;
70997;SDS011;58663;52.040;4.634;2023-05-10T07:40:28;8.98;;;5.38;;
70997;SDS011;58663;52.040;4.634;2023-05-10T07:42:53;12.40;;;6.13;;
70997;SDS011;58663;52.040;4.634;2023-05-10T07:45:19;11.20;;;6.88;;
70997;SDS011;58663;52.040;4.634;2023-05-10T07:47:44;12.48;;;6.70;;
70997;SDS011;58663;52.040;4.634;2023-05-10T07:50:10;10.60;;;6.03;;
70997;SDS011;58663;52.040;4.634;2023-05-10T07:52:35;10.85;;;6.78;;
70997;SDS011;58663;52.040;4.634;2023-05-10T07:55:00;11.90;;;6.50;;
70997;SDS011;58663;52.040;4.634;2023-05-10T07:57:26;10.55;;;6.45;;
70997;SDS011;58663;52.040;4.634;2023-05-10T07:59:51;10.48;;;6.60;;
70997;SDS011;58663;52.040;4.634;2023-05-10T08:02:16;12.80;;;6.97;;
70997;SDS011;58663;52.040;4.634;2023-05-10T08:04:42;11.05;;;6.55;;
70997;SDS011;58663;52.040;4.634;2023-05-10T08:07:07;11.02;;;6.10;;
70997;SDS011;58663;52.040;4.634;2023-05-10T08:09:33;12.85;;;5.93;;
70997;SDS011;58663;52.040;4.634;2023-05-10T08:11:58;16.58;;;7.05;;
70997;SDS011;58663;52.040;4.634;2023-05-10T08:14:24;18.33;;;7.00;;
70997;SDS011;58663;52.040;4.634;2023-05-10T08:16:52;10.05;;;6.72;;
70997;SDS011;58663;52.040;4.634;2023-05-10T08:19:17;15.82;;;6.65;;
70997;SDS011;58663;52.040;4.634;2023-05-10T08:21:45;8.68;;;5.95;;
70997;SDS011;58663;52.040;4.634;2023-05-10T08:24:10;13.55;;;6.43;;
70997;SDS011;58663;52.040;4.634;2023-05-10T08:26:36;12.10;;;6.80;;
70997;SDS011;58663;52.040;4.634;2023-05-10T08:29:01;13.15;;;6.93;;
70997;SDS011;58663;52.040;4.634;2023-05-10T08:31:27;12.77;;;7.55;;
70997;SDS011;58663;52.040;4.634;2023-05-10T08:33:52;11.20;;;6.97;;
70997;SDS011;58663;52.040;4.634;2023-05-10T08:36:17;16.45;;;7.03;;
70997;SDS011;58663;52.040;4.634;2023-05-10T08:38:46;12.20;;;6.60;;
70997;SDS011;58663;52.040;4.634;2023-05-10T08:41:22;14.75;;;6.90;;
70997;SDS011;58663;52.040;4.634;2023-05-10T08:46:15;13.57;;;6.82;;
70997;SDS011;58663;52.040;4.634;2023-05-10T08:48:45;12.80;;;7.20;;
70997;SDS011;58663;52.040;4.634;2023-05-10T08:51:13;13.40;;;6.97;;
70997;SDS011;58663;52.040;4.634;2023-05-10T08:53:40;16.75;;;7.25;;
70997;SDS011;58663;52.040;4.634;2023-05-10T08:56:05;16.63;;;7.40;;
70997;SDS011;58663;52.040;4.634;2023-05-10T08:58:31;14.18;;;6.95;;
70997;SDS011;58663;52.040;4.634;2023-05-10T09:00:56;15.88;;;6.65;;
70997;SDS011;58663;52.040;4.634;2023-05-10T09:03:22;18.90;;;6.68;;
70997;SDS011;58663;52.040;4.634;2023-05-10T09:05:48;12.10;;;6.43;;
70997;SDS011;58663;52.040;4.634;2023-05-10T09:08:14;11.15;;;5.68;;
70997;SDS011;58663;52.040;4.634;2023-05-10T09:10:41;9.40;;;6.10;;
70997;SDS011;58663;52.040;4.634;2023-05-10T09:13:08;11.05;;;5.45;;
70997;SDS011;58663;52.040;4.634;2023-05-10T09:15:35;16.20;;;5.53;;
70997;SDS011;58663;52.040;4.634;2023-05-10T09:18:00;17.95;;;5.68;;
70997;SDS011;58663;52.040;4.634;2023-05-10T09:20:27;22.10;;;6.20;;
70997;SDS011;58663;52.040;4.634;2023-05-10T09:22:52;22.55;;;6.80;;
70997;SDS011;58663;52.040;4.634;2023-05-10T09:25:18;9.65;;;4.85;;
70997;SDS011;58663;52.040;4.634;2023-05-10T09:27:45;11.40;;;6.70;;
70997;SDS011;58663;52.040;4.634;2023-05-10T09:30:22;14.48;;;6.90;;
70997;SDS011;58663;52.040;4.634;2023-05-10T09:32:49;8.88;;;4.53;;
70997;SDS011;58663;52.040;4.634;2023-05-10T09:35:19;11.98;;;5.35;;
70997;SDS011;58663;52.040;4.634;2023-05-10T09:40:14;10.20;;;5.32;;
70997;SDS011;58663;52.040;4.634;2023-05-10T09:42:41;9.52;;;5.80;;
70997;SDS011;58663;52.040;4.634;2023-05-10T09:45:07;9.95;;;4.95;;
70997;SDS011;58663;52.040;4.634;2023-05-10T09:47:34;10.73;;;6.15;;
70997;SDS011;58663;52.040;4.634;2023-05-10T09:50:00;9.80;;;5.13;;
70997;SDS011;58663;52.040;4.634;2023-05-10T09:52:28;6.97;;;4.75;;
70997;SDS011;58663;52.040;4.634;2023-05-10T09:54:54;10.10;;;5.72;;
70997;SDS011;58663;52.040;4.634;2023-05-10T09:57:20;7.57;;;4.63;;
70997;SDS011;58663;52.040;4.634;2023-05-10T10:02:16;14.00;;;4.88;;
70997;SDS011;58663;52.040;4.634;2023-05-10T10:04:42;6.60;;;4.82;;
70997;SDS011;58663;52.040;4.634;2023-05-10T10:07:07;8.07;;;5.03;;
70997;SDS011;58663;52.040;4.634;2023-05-10T10:09:33;7.45;;;5.47;;
70997;SDS011;58663;52.040;4.634;2023-05-10T10:12:00;7.47;;;4.72;;
70997;SDS011;58663;52.040;4.634;2023-05-10T10:14:26;9.98;;;6.07;;
70997;SDS011;58663;52.040;4.634;2023-05-10T10:16:52;12.05;;;5.57;;
70997;SDS011;58663;52.040;4.634;2023-05-10T10:19:18;17.23;;;6.13;;
70997;SDS011;58663;52.040;4.634;2023-05-10T10:21:45;23.30;;;6.55;;
70997;SDS011;58663;52.040;4.634;2023-05-10T10:24:10;7.85;;;5.90;;
70997;SDS011;58663;52.040;4.634;2023-05-10T10:26:36;11.13;;;5.90;;
70997;SDS011;58663;52.040;4.634;2023-05-10T10:31:53;25.88;;;6.47;;
70997;SDS011;58663;52.040;4.634;2023-05-10T10:34:27;10.97;;;5.80;;
70997;SDS011;58663;52.040;4.634;2023-05-10T10:36:54;10.40;;;6.00;;
70997;SDS011;58663;52.040;4.634;2023-05-10T10:39:20;9.18;;;5.95;;
70997;SDS011;58663;52.040;4.634;2023-05-10T10:41:50;14.68;;;7.35;;
70997;SDS011;58663;52.040;4.634;2023-05-10T10:44:33;17.02;;;8.32;;
70997;SDS011;58663;52.040;4.634;2023-05-10T10:49:43;25.38;;;9.18;;
70997;SDS011;58663;52.040;4.634;2023-05-10T10:52:29;14.38;;;8.45;;
70997;SDS011;58663;52.040;4.634;2023-05-10T11:02:58;10.15;;;6.47;;
70997;SDS011;58663;52.040;4.634;2023-05-10T11:05:50;11.90;;;6.38;;
70997;SDS011;58663;52.040;4.634;2023-05-10T11:10:50;13.60;;;7.18;;
70997;SDS011;58663;52.040;4.634;2023-05-10T11:13:21;13.90;;;7.53;;
70997;SDS011;58663;52.040;4.634;2023-05-10T11:15:53;13.52;;;7.75;;
70997;SDS011;58663;52.040;4.634;2023-05-10T11:18:19;13.23;;;7.18;;
70997;SDS011;58663;52.040;4.634;2023-05-10T11:20:49;12.25;;;7.22;;
70997;SDS011;58663;52.040;4.634;2023-05-10T11:23:16;14.43;;;6.97;;
70997;SDS011;58663;52.040;4.634;2023-05-10T11:25:43;13.57;;;7.35;;
70997;SDS011;58663;52.040;4.634;2023-05-10T11:28:09;15.80;;;7.63;;
70997;SDS011;58663;52.040;4.634;2023-05-10T11:30:35;14.38;;;7.78;;
70997;SDS011;58663;52.040;4.634;2023-05-10T11:33:01;12.38;;;7.93;;
70997;SDS011;58663;52.040;4.634;2023-05-10T11:35:27;15.00;;;7.15;;
70997;SDS011;58663;52.040;4.634;2023-05-10T11:37:52;14.60;;;8.18;;
70997;SDS011;58663;52.040;4.634;2023-05-10T11:40:18;10.82;;;7.28;;
70997;SDS011;58663;52.040;4.634;2023-05-10T11:42:44;14.98;;;7.88;;
70997;SDS011;58663;52.040;4.634;2023-05-10T11:45:10;16.08;;;8.40;;
70997;SDS011;58663;52.040;4.634;2023-05-10T11:47:35;12.50;;;8.00;;
70997;SDS011;58663;52.040;4.634;2023-05-10T11:50:02;9.80;;;6.80;;
70997;SDS011;58663;52.040;4.634;2023-05-10T11:52:27;11.20;;;6.57;;
70997;SDS011;58663;52.040;4.634;2023-05-10T11:54:54;14.90;;;7.57;;
70997;SDS011;58663;52.040;4.634;2023-05-10T11:57:20;10.82;;;7.15;;
70997;SDS011;58663;52.040;4.634;2023-05-10T11:59:46;12.90;;;8.40;;
70997;SDS011;58663;52.040;4.634;2023-05-10T12:02:13;12.85;;;7.57;;
70997;SDS011;58663;52.040;4.634;2023-05-10T12:04:38;10.00;;;6.90;;
70997;SDS011;58663;52.040;4.634;2023-05-10T12:07:04;8.85;;;6.50;;
70997;SDS011;58663;52.040;4.634;2023-05-10T12:09:30;15.27;;;8.35;;
70997;SDS011;58663;52.040;4.634;2023-05-10T12:11:55;8.52;;;5.00;;
70997;SDS011;58663;52.040;4.634;2023-05-10T12:14:24;9.27;;;5.75;;
70997;SDS011;58663;52.040;4.634;2023-05-10T12:16:49;10.60;;;7.40;;
70997;SDS011;58663;52.040;4.634;2023-05-10T12:19:18;14.50;;;7.78;;
70997;SDS011;58663;52.040;4.634;2023-05-10T12:21:44;13.60;;;7.88;;
70997;SDS011;58663;52.040;4.634;2023-05-10T12:24:09;10.98;;;6.85;;
70997;SDS011;58663;52.040;4.634;2023-05-10T12:26:35;12.70;;;7.40;;
70997;SDS011;58663;52.040;4.634;2023-05-10T12:31:55;12.80;;;7.40;;
70997;SDS011;58663;52.040;4.634;2023-05-10T12:34:24;12.90;;;7.80;;
70997;SDS011;58663;52.040;4.634;2023-05-10T12:36:53;9.23;;;5.72;;
70997;SDS011;58663;52.040;4.634;2023-05-10T12:39:19;13.45;;;6.18;;
70997;SDS011;58663;52.040;4.634;2023-05-10T12:41:44;14.70;;;6.50;;
70997;SDS011;58663;52.040;4.634;2023-05-10T12:44:10;13.30;;;6.75;;
70997;SDS011;58663;52.040;4.634;2023-05-10T12:46:35;11.43;;;7.15;;
70997;SDS011;58663;52.040;4.634;2023-05-10T12:49:00;15.15;;;7.97;;
70997;SDS011;58663;52.040;4.634;2023-05-10T12:51:26;10.77;;;6.30;;
70997;SDS011;58663;52.040;4.634;2023-05-10T12:53:51;13.20;;;6.75;;
70997;SDS011;58663;52.040;4.634;2023-05-10T12:56:16;18.60;;;8.05;;
70997;SDS011;58663;52.040;4.634;2023-05-10T12:58:42;14.52;;;7.05;;
70997;SDS011;58663;52.040;4.634;2023-05-10T13:01:12;10.68;;;6.50;;
70997;SDS011;58663;52.040;4.634;2023-05-10T13:03:38;13.95;;;7.97;;
70997;SDS011;58663;52.040;4.634;2023-05-10T13:06:03;10.93;;;7.32;;
70997;SDS011;58663;52.040;4.634;2023-05-10T13:08:29;16.35;;;8.48;;
70997;SDS011;58663;52.040;4.634;2023-05-10T13:10:58;16.35;;;8.13;;
70997;SDS011;58663;52.040;4.634;2023-05-10T13:13:24;26.27;;;10.25;;
70997;SDS011;58663;52.040;4.634;2023-05-10T13:15:49;23.38;;;8.10;;
70997;SDS011;58663;52.040;4.634;2023-05-10T13:18:15;31.95;;;8.40;;
70997;SDS011;58663;52.040;4.634;2023-05-10T13:20:40;60.35;;;8.93;;
70997;SDS011;58663;52.040;4.634;2023-05-10T13:23:05;10.82;;;6.80;;
70997;SDS011;58663;52.040;4.634;2023-05-10T13:25:31;21.27;;;7.38;;
70997;SDS011;58663;52.040;4.634;2023-05-10T13:27:56;15.35;;;7.78;;
70997;SDS011;58663;52.040;4.634;2023-05-10T13:30:22;18.05;;;7.72;;
70997;SDS011;58663;52.040;4.634;2023-05-10T13:32:48;26.52;;;7.65;;
70997;SDS011;58663;52.040;4.634;2023-05-10T13:35:14;11.60;;;5.43;;
70997;SDS011;58663;52.040;4.634;2023-05-10T13:37:39;16.65;;;7.00;;
70997;SDS011;58663;52.040;4.634;2023-05-10T13:40:05;16.80;;;6.32;;
70997;SDS011;58663;52.040;4.634;2023-05-10T13:42:31;11.93;;;6.07;;
70997;SDS011;58663;52.040;4.634;2023-05-10T13:44:58;17.75;;;5.30;;
70997;SDS011;58663;52.040;4.634;2023-05-10T13:47:24;9.98;;;5.32;;
70997;SDS011;58663;52.040;4.634;2023-05-10T13:49:49;10.75;;;5.03;;
70997;SDS011;58663;52.040;4.634;2023-05-10T13:52:14;8.55;;;4.97;;
70997;SDS011;58663;52.040;4.634;2023-05-10T13:54:40;16.90;;;5.03;;
70997;SDS011;58663;52.040;4.634;2023-05-10T13:57:05;11.55;;;6.32;;
70997;SDS011;58663;52.040;4.634;2023-05-10T13:59:31;11.65;;;5.65;;
70997;SDS011;58663;52.040;4.634;2023-05-10T14:01:57;20.45;;;7.57;;
70997;SDS011;58663;52.040;4.634;2023-05-10T14:04:23;10.98;;;6.25;;
70997;SDS011;58663;52.040;4.634;2023-05-10T14:06:48;10.82;;;6.35;;
70997;SDS011;58663;52.040;4.634;2023-05-10T14:09:13;14.65;;;6.75;;
70997;SDS011;58663;52.040;4.634;2023-05-10T14:11:39;12.27;;;6.45;;
70997;SDS011;58663;52.040;4.634;2023-05-10T14:14:08;10.93;;;5.25;;
70997;SDS011;58663;52.040;4.634;2023-05-10T14:16:33;9.25;;;4.57;;
70997;SDS011;58663;52.040;4.634;2023-05-10T14:18:59;7.20;;;4.55;;
70997;SDS011;58663;52.040;4.634;2023-05-10T14:21:24;8.52;;;4.72;;
70997;SDS011;58663;52.040;4.634;2023-05-10T14:23:50;6.53;;;4.78;;
70997;SDS011;58663;52.040;4.634;2023-05-10T14:26:15;7.40;;;4.57;;
70997;SDS011;58663;52.040;4.634;2023-05-10T14:28:41;5.72;;;4.35;;
70997;SDS011;58663;52.040;4.634;2023-05-10T14:31:06;6.07;;;4.50;;
70997;SDS011;58663;52.040;4.634;2023-05-10T14:33:31;9.43;;;4.93;;
70997;SDS011;58663;52.040;4.634;2023-05-10T14:35:57;4.55;;;4.00;;
70997;SDS011;58663;52.040;4.634;2023-05-10T14:38:22;6.55;;;4.53;;
70997;SDS011;58663;52.040;4.634;2023-05-10T14:40:48;6.75;;;4.60;;
70997;SDS011;58663;52.040;4.634;2023-05-10T14:43:14;9.50;;;5.28;;
70997;SDS011;58663;52.040;4.634;2023-05-10T14:45:39;6.05;;;4.25;;
70997;SDS011;58663;52.040;4.634;2023-05-10T14:48:05;7.75;;;4.70;;
70997;SDS011;58663;52.040;4.634;2023-05-10T14:50:30;8.13;;;4.65;;
70997;SDS011;58663;52.040;4.634;2023-05-10T14:52:56;8.32;;;4.75;;
70997;SDS011;58663;52.040;4.634;2023-05-10T14:55:22;7.20;;;4.45;;
70997;SDS011;58663;52.040;4.634;2023-05-10T14:57:47;7.57;;;5.15;;
70997;SDS011;58663;52.040;4.634;2023-05-10T15:00:15;6.57;;;4.40;;
70997;SDS011;58663;52.040;4.634;2023-05-10T15:02:41;7.95;;;4.90;;
70997;SDS011;58663;52.040;4.634;2023-05-10T15:05:06;8.40;;;5.32;;